Aérodrome :
LOGIN :

S'inscrire | Disclaimer

   EN    FR    IT 

 










Légende :    VFR   VFR Marginal   IFR   IFR Intensif   IFR Très Intensif
Visi : 
Plafond : 
>= 8 km
>= 3000ft
5 à 8 km
1000 à 3000 ft
1500m à 5 km
500 à 1000 ft
800 à 1500m
200 à 500 ft
< 800m
< 200 ft
Symboles :   Orages  Brouillard  Fortes neiges  Fortes précipitations  Vent > 20 kt
SIGMETs :   Divers  Orages  Givrage  Turbulence  Onde Orograph.  Cendres Volcan.






- Altitude de l'aérodrome : 364 ft


LFAQ - Albert Bray

DERNIER METAR :
  • 071330Z AUTO 24010KT 9999 FEW019 OVC039 10/09 Q1016 NOSIG

METARs EXPIRÉS :
  • 071300Z AUTO 23011KT 9999 FEW014 OVC039 10/09 Q1016 TEMPO BKN010
  • 071230Z AUTO 24010KT 9999 FEW014 OVC042 10/08 Q1016 TEMPO BKN010
  • 071200Z AUTO 24010KT 9999 FEW012 SCT027 BKN033 09/08 Q1016 TEMPO BKN010
  • 071130Z AUTO 23009KT 9999 SCT009 SCT015 OVC036 09/08 Q1016 TEMPO BKN010
  • 071100Z AUTO 22011KT 9999 SCT009 OVC014 09/08 Q1016 BECMG BKN017

TAF TAF LFAQ
Valide du 07 à 12h jusqu'au 07 à 21h UTC


071100Z 0712/0721 22012KT 9999 BKN020
TEMPO 0712/0714 BKN010



MET'MAP, la Météo Aéronautique d'un coup d'oeil ! - Copyright ORBIFLY Décembre 2007 - Disclaimer

ORBIFLY MET'MAP TEAM :

Programmation & Développement : Alexandra Zaïnal
Sur une idée originale de : Baudouin d'Aumeries
Assistance à la programmation : Marc-Olivier Méhu
Soutien technique & logistique : Manuel Goepfert

Contact : metmap@orbifly.com




SOURCES & CREDITS :

   NOAA